Estación de Peldehue

Ultimos registro cada 15 minutos 69
Estación Fecha / Hora Temperatura Humedad Lluvia Velocidad Dirección Radiación Presion
69 Peldehue 09-05-2026 17:00 20 27,8 0 0,5 219 23,1 933,6
68 Peldehue 09-05-2026 16:45 20,6 25,7 0 1 229 41,9 933,5
67 Peldehue 09-05-2026 16:30 21 23,9 0 0,5 230 34,4 933,6
66 Peldehue 09-05-2026 16:15 21,7 20,4 0 0,5 230 76,9 933,7
65 Peldehue 09-05-2026 16:00 21,7 22,5 0 0,5 229 363,1 933,6
64 Peldehue 09-05-2026 15:45 22,4 24,2 0 0 223 408,1 933,9
63 Peldehue 09-05-2026 15:30 22,3 25,9 0 0 223 443,1 934
62 Peldehue 09-05-2026 15:15 22 25,4 0 0 223 480,6 933,9
61 Peldehue 09-05-2026 15:00 22 27,8 0 0 218 514,4 933,8
60 Peldehue 09-05-2026 14:45 21,9 28,4 0 0 222 548,1 934
59 Peldehue 09-05-2026 14:30 22,1 25,9 0 0 223 574,4 934
58 Peldehue 09-05-2026 14:15 22,5 29,7 0 0 223 600,6 933,9
57 Peldehue 09-05-2026 14:00 21,4 25,8 0 0,5 223 620,6 934
56 Peldehue 09-05-2026 13:45 21,1 27,3 0 0 218 638,1 934
55 Peldehue 09-05-2026 13:30 20,8 29,1 0 0 220 654,4 934
54 Peldehue 09-05-2026 13:15 21,6 29,5 0 0 216 663,1 934
53 Peldehue 09-05-2026 13:00 21,2 29,4 0 0 219 669,4 934,1
52 Peldehue 09-05-2026 12:45 19,4 32,2 0 0 218 673,1 934,2
51 Peldehue 09-05-2026 12:30 20 33,8 0 0 215 669,4 934,2
50 Peldehue 09-05-2026 12:15 19,5 34,4 0 0 218 664,4 934,4
49 Peldehue 09-05-2026 12:00 19,5 35,9 0 0 218 655,6 934,5
48 Peldehue 09-05-2026 11:45 17,6 43,4 0 0 215 640,6 934,5
47 Peldehue 09-05-2026 11:30 17,9 39,9 0 0 216 624,4 934,9
46 Peldehue 09-05-2026 11:15 17,6 38,5 0 0 216 605,6 934,9
45 Peldehue 09-05-2026 11:00 17,2 43,9 0 0 216 581,9 935,1
44 Peldehue 09-05-2026 10:45 15 49,8 0 0 216 553,1 935,3
43 Peldehue 09-05-2026 10:30 15,3 50 0 0 216 520,6 935,1
42 Peldehue 09-05-2026 10:15 14,3 54,3 0 0 216 483,1 935,2
41 Peldehue 09-05-2026 10:00 12,9 58,9 0 0 212 441,9 935,2
40 Peldehue 09-05-2026 09:45 13,2 53,9 0 0 211 400,6 935,2
39 Peldehue 09-05-2026 09:30 11,8 59,8 0 0 212 358,1 935
38 Peldehue 09-05-2026 09:15 10,8 65,1 0 0 212 313,1 935,2
37 Peldehue 09-05-2026 09:00 9,1 71,8 0 0 212 268,1 935,2
36 Peldehue 09-05-2026 08:45 8,5 72,5 0 0 212 220,6 935,1
35 Peldehue 09-05-2026 08:30 5,6 83,5 0 0 213 173,1 934,8
34 Peldehue 09-05-2026 08:15 3,2 88,5 0 0 215 25,6 934,9
33 Peldehue 09-05-2026 08:00 3,2 89 0 0 215 18,1 934,8
32 Peldehue 09-05-2026 07:45 3,1 89,8 0 0 215 9,4 934,9
31 Peldehue 09-05-2026 07:30 3,1 89,6 0 0 216 5,6 934,8
30 Peldehue 09-05-2026 07:15 3,1 89,1 0 0 216 1,9 934,9
29 Peldehue 09-05-2026 07:00 4,1 84,8 0 0 213 0,6 934,8
28 Peldehue 09-05-2026 06:45 4,5 85,4 0 0 212 0,6 934,6
27 Peldehue 09-05-2026 06:30 4,6 85,7 0 0 215 0,6 934,7
26 Peldehue 09-05-2026 06:15 4,1 86,7 0 0 215 0,6 934,5
25 Peldehue 09-05-2026 06:00 4,2 87,2 0 0 215 0,6 934,5
24 Peldehue 09-05-2026 05:45 4,3 87,1 0 0 215 0,6 934,4
23 Peldehue 09-05-2026 05:30 4,3 85,4 0 0 215 0,6 934,1
22 Peldehue 09-05-2026 05:15 4,6 84,6 0 0 215 0,6 933,9
21 Peldehue 09-05-2026 05:00 4 88,1 0 0 213 0,6 933,9
20 Peldehue 09-05-2026 04:45 4,3 87 0 0 213 0,6 933,9
19 Peldehue 09-05-2026 04:30 4,4 87,5 0 0 213 0,6 934
18 Peldehue 09-05-2026 04:15 4,7 86,8 0 0 215 0,6 934,1
17 Peldehue 09-05-2026 04:00 4,8 88,2 0 0 215 0,6 934
16 Peldehue 09-05-2026 03:45 4,6 86,4 0 0 215 0,6 934
15 Peldehue 09-05-2026 03:30 5,4 82,8 0 0 215 0,6 934
14 Peldehue 09-05-2026 03:15 6,1 83 0 0 215 0,6 934,4
13 Peldehue 09-05-2026 03:00 5,5 84,1 0 0 215 0,6 934,5
12 Peldehue 09-05-2026 02:45 5,1 85,3 0 0 215 0,6 934,6
11 Peldehue 09-05-2026 02:30 5,1 84,7 0 0 215 0,6 934,8
10 Peldehue 09-05-2026 02:15 5,7 82,2 0 0 215 0,6 934,8
9 Peldehue 09-05-2026 02:00 5,7 82,2 0 0 215 0,6 934,7
8 Peldehue 09-05-2026 01:45 5,7 82,3 0 0 215 0,6 935,2
7 Peldehue 09-05-2026 01:30 5,8 81,5 0 0 215 0,6 935,3
6 Peldehue 09-05-2026 01:15 6 82,2 0 0 215 0,6 935,4
5 Peldehue 09-05-2026 01:00 6 82,4 0 0 215 0,6 935,5
4 Peldehue 09-05-2026 00:45 5,8 82,8 0 0 215 0,6 935,4
3 Peldehue 09-05-2026 00:30 6,1 82,5 0 0 215 0,6 935,5
2 Peldehue 09-05-2026 00:15 5,9 82,3 0 0 215 0,6 935,8
1 Peldehue 09-05-2026 00:00 6,9 78,7 0 0 215 0,6 935,9